Date,TemperatureHighF,TemperatureAvgF,TemperatureLowF,DewpointHighF,DewpointAvgF,DewpointLowF,HumidityHigh,HumidityAvg,HumidityLow,PressureMaxIn,PressureMinIn,WindSpeedMaxMPH,WindSpeedAvgMPH,GustSpeedMaxMPH,PrecipitationSumIn
2014-1-1,56,42,32,39,33,27,84,70,50,30.26,29.94,16,2,17,0.00
2014-1-2,47,31,23,39,20,11,74,63,50,30.51,29.99,23,3,23,0.00
2014-1-3,39,27,18,20,14,9,70,60,42,30.54,30.15,14,2,14,0.00
2014-1-4,44,36,28,38,28,18,77,70,64,30.17,29.82,12,1,13,0.00
2014-1-5,51,32,0,48,26,0,92,77,57,30.53,29.69,21,4,23,0.03
2014-1-6,18,14,11,2,0,-4,64,53,42,30.67,30.53,18,2,25,0.01
2014-1-7,41,24,10,17,10,1,74,57,37,30.64,30.34,15,2,17,0.00
2014-1-8,32,30,28,28,22,14,93,74,49,30.43,30.33,10,1,13,0.00
2014-1-9,33,32,30,31,30,28,95,94,93,30.39,30.15,10,0,10,0.00
2014-1-10,50,42,32,49,41,31,97,96,95,30.15,29.66,13,1,13,0.80
2014-1-11,54,47,36,49,41,32,97,81,54,30.06,29.73,15,2,17,0.14
2014-1-12,68,50,35,40,35,31,84,58,31,30.06,29.76,21,2,21,0.01
2014-1-13,60,52,41,47,38,30,77,59,43,30.00,29.73,17,1,18,0.00
2014-1-14,54,43,35,41,31,23,83,64,47,30.23,29.94,19,1,21,0.00
2014-1-15,43,36,30,24,19,14,65,52,39,30.31,30.06,19,2,19,0.00
2014-1-16,58,44,34,36,26,20,76,50,35,30.07,29.90,25,2,26,0.00
2014-1-17,43,35,28,21,14,10,57,42,30,30.24,30.02,24,3,27,0.00
2014-1-18,59,42,27,34,24,14,62,50,36,30.20,29.84,20,2,21,0.00
2014-1-19,56,43,33,31,27,22,68,53,35,30.24,30.01,14,0,17,0.00
2014-1-20,65,49,36,40,31,24,70,51,37,30.10,29.82,20,1,20,0.00
2014-1-21,47,33,25,25,14,7,62,45,31,30.39,30.07,22,2,26,0.00
2014-1-22,47,33,21,23,16,8,64,51,36,30.31,30.11,10,0,12,0.00
2014-1-23,34,26,15,21,6,-2,62,43,31,30.83,30.30,15,2,17,0.00
2014-1-24,37,24,10,10,4,-1,67,45,29,30.83,30.14,14,1,15,0.00
2014-1-25,59,41,26,35,24,9,68,50,37,30.14,29.96,12,0,12,0.00
2014-1-26,68,49,34,41,34,28,84,60,36,29.97,29.67,12,0,14,0.00
2014-1-27,46,30,21,33,7,-2,64,37,30,30.45,29.84,20,2,20,0.00
2014-1-28,32,23,18,10,5,-1,67,45,32,30.55,30.41,11,1,12,0.00
2014-1-29,42,27,14,18,11,4,68,52,36,30.48,30.22,9,0,13,0.00
2014-1-30,46,36,26,31,22,13,74,56,38,30.22,29.92,24,2,25,0.00
2014-1-31,51,44,38,45,35,26,82,72,57,30.00,29.86,12,1,12,0.00
2014-2-1,55,47,37,53,44,35,97,91,82,30.04,29.83,22,3,24,0.05
2014-2-2,37,32,28,35,30,25,95,92,88,30.29,30.03,14,1,14,0.23
2014-2-3,40,29,20,29,23,16,88,78,54,30.37,30.20,11,1,12,0.23
2014-2-4,32,30,27,31,26,15,94,86,58,30.21,29.92,14,1,14,0.00
2014-2-5,32,27,18,31,24,13,94,88,82,30.58,30.03,0,0,0,0.26
2014-2-6,22,19,14,18,14,10,89,82,78,30.65,30.48,0,0,0,0.00
2014-2-7,24,21,18,19,16,13,89,83,78,30.50,30.33,0,0,0,0.00
2014-2-8,32,26,20,28,24,18,92,89,84,30.33,30.14,0,0,0,0.00
2014-2-9,36,33,30,33,30,28,94,91,88,30.26,30.16,10,1,10,0.11
2014-2-10,37,32,27,29,25,17,92,75,61,30.39,30.25,14,3,15,0.15
2014-2-11,37,29,23,18,13,10,67,52,36,30.44,30.27,14,2,14,0.04
2014-2-12,46,32,20,21,13,7,64,46,26,30.29,30.02,10,0,12,0.06
2014-2-13,56,40,27,33,26,17,77,58,40,30.05,29.84,10,0,10,0.01
2014-2-14,60,44,36,41,31,26,79,61,36,30.12,29.72,27,1,27,0.00
2014-2-15,57,39,28,33,27,22,82,64,37,30.22,29.98,17,1,18,0.00
2014-2-16,64,50,39,38,33,30,76,55,33,30.16,30.02,14,2,17,0.00
2014-2-17,70,52,42,49,37,28,79,59,31,30.16,29.90,16,2,19,0.00
2014-2-18,71,55,37,56,40,26,77,58,40,30.14,29.80,18,1,20,0.00
2014-2-19,63,58,50,55,44,34,89,63,38,30.02,29.69,15,2,16,0.00
2014-2-20,74,59,42,61,48,31,92,68,37,29.99,29.56,30,4,30,0.00
2014-2-21,64,49,34,32,26,22,73,45,22,30.14,29.99,12,1,16,0.00
2014-2-22,71,55,40,38,31,22,54,41,27,30.06,29.84,22,1,22,0.00
2014-2-23,56,48,40,38,36,30,72,62,45,30.23,29.88,16,2,18,0.00
2014-2-24,48,41,31,30,23,14,69,49,34,30.33,30.13,16,2,16,0.00
2014-2-25,57,45,37,34,29,21,72,55,39,30.20,30.07,20,2,20,0.00
2014-2-26,40,32,24,21,14,10,61,48,32,30.36,30.12,16,1,17,0.00
2014-2-27,53,37,24,25,18,10,62,46,31,30.17,29.98,11,1,11,0.00
2014-2-28,43,38,32,38,31,23,91,74,56,30.04,29.89,15,2,15,0.07
2014-3-1,54,48,41,48,43,38,97,85,77,30.12,30.00,11,1,12,0.01
2014-3-2,52,36,22,47,33,18,98,88,76,30.30,29.97,18,2,18,0.02
2014-3-3,26,20,13,22,17,9,92,86,81,30.50,30.29,0,0,0,0.00
2014-3-4,34,26,17,29,22,14,90,86,80,30.37,30.16,0,0,0,0.03
2014-3-5,34,29,23,33,26,21,96,90,89,30.23,30.14,0,0,1,0.03
2014-3-6,53,39,29,39,33,27,93,79,50,30.24,30.08,6,0,6,0.14
2014-3-7,60,46,32,42,35,28,87,67,43,30.10,29.92,14,1,14,0.05
2014-3-8,67,51,41,50,42,37,88,72,48,30.25,29.99,17,1,17,0.01
2014-3-9,52,46,41,43,40,36,87,78,67,30.35,30.17,10,1,10,0.00
2014-3-10,72,54,38,51,44,36,94,72,44,30.18,29.84,11,1,11,0.00
2014-3-11,76,63,51,59,52,44,82,67,53,29.84,29.51,19,3,25,0.00
2014-3-12,67,50,42,56,32,25,72,51,29,30.22,29.58,19,3,24,0.00
2014-3-13,69,52,36,38,33,30,86,53,29,30.27,30.05,12,1,14,0.00
2014-3-14,66,56,46,49,41,32,74,58,44,30.06,29.98,19,2,20,0.00
2014-3-15,65,57,50,56,51,45,94,82,68,30.03,29.77,14,2,14,0.81
2014-3-16,56,46,33,55,44,30,96,92,86,30.03,29.57,22,2,22,0.41
2014-3-17,56,41,30,40,33,26,88,74,50,30.03,29.79,10,0,11,0.04
2014-3-18,70,53,36,51,42,33,92,70,43,29.81,29.60,22,4,26,0.00
2014-3-19,61,52,41,52,38,32,73,60,48,30.20,29.73,22,2,23,0.00
2014-3-20,69,52,35,42,35,30,91,57,25,30.24,30.01,15,1,15,0.00
2014-3-21,72,58,44,53,41,31,74,53,40,30.04,29.84,14,1,16,0.05
2014-3-22,68,57,48,53,43,37,88,61,40,30.18,29.96,16,2,17,0.10
2014-3-23,58,48,41,43,32,25,89,56,29,30.40,30.17,17,2,18,0.06
2014-3-24,58,46,35,35,30,24,70,54,38,30.31,30.09,14,1,17,0.00
2014-3-25,54,44,34,36,27,19,74,53,32,30.36,30.18,18,1,23,0.00
2014-3-26,59,45,34,42,28,19,80,52,34,30.35,30.00,18,1,18,0.06
2014-3-27,64,56,49,60,49,36,92,78,58,30.00,29.69,32,3,32,0.00
2014-3-28,64,59,52,60,53,48,92,82,68,30.01,29.77,20,2,20,0.34
2014-3-29,66,54,45,48,43,38,94,71,45,30.27,30.00,14,1,16,0.00
2014-3-30,70,54,42,50,43,36,92,67,42,30.29,30.03,12,1,13,0.00
2014-3-31,67,57,50,55,48,37,85,71,43,30.04,29.86,21,2,21,0.05
2014-4-1,76,62,53,63,56,49,92,80,62,30.06,29.92,17,1,19,0.00
2014-4-2,71,65,60,67,63,57,95,92,85,29.93,29.74,21,2,21,0.01
2014-4-3,75,71,67,67,66,57,91,82,68,29.77,29.62,23,4,26,0.27
2014-4-4,65,53,43,59,41,34,92,66,42,30.15,29.66,22,1,26,0.08
2014-4-5,56,48,39,39,36,32,78,63,49,30.24,30.06,14,1,14,0.00
2014-4-6,51,48,45,46,42,38,92,82,67,30.12,29.77,10,1,11,0.27
2014-4-7,65,52,43,49,45,41,94,80,52,29.87,29.70,14,1,14,0.44
2014-4-8,61,53,47,50,44,35,91,73,42,30.13,29.83,23,1,29,0.04
2014-4-9,73,57,41,45,40,37,91,59,32,30.25,30.02,13,1,14,0.00
2014-4-10,85,68,52,56,49,40,69,52,33,30.03,29.83,26,2,26,0.00
2014-4-11,77,68,61,61,56,53,80,67,56,30.06,29.94,16,2,16,0.00
2014-4-12,79,69,62,61,58,57,85,70,48,29.99,29.80,23,3,23,0.00
2014-4-13,69,64,56,63,59,54,95,84,71,29.84,29.59,26,3,31,1.57
2014-4-14,56,47,39,55,42,30,96,83,68,30.19,29.60,18,1,18,0.01
2014-4-15,58,46,34,36,31,26,86,59,35,30.30,30.14,9,0,11,0.00
2014-4-16,62,50,39,38,35,32,81,58,37,30.24,30.04,19,2,19,0.00